sensor_id;sensor_type;location;lat;lon;timestamp;P1;durP1;ratioP1;P2;durP2;ratioP2
10056;SDS011;5068;51.286;7.518;2023-07-31T00:00:25;2.50;;;1.10;;
10056;SDS011;5068;51.286;7.518;2023-07-31T00:01:57;2.33;;;1.27;;
10056;SDS011;5068;51.286;7.518;2023-07-31T00:03:30;2.58;;;1.30;;
10056;SDS011;5068;51.286;7.518;2023-07-31T00:05:03;2.85;;;1.35;;
10056;SDS011;5068;51.286;7.518;2023-07-31T00:06:39;2.75;;;1.42;;
10056;SDS011;5068;51.286;7.518;2023-07-31T00:08:13;2.88;;;1.30;;
10056;SDS011;5068;51.286;7.518;2023-07-31T00:09:46;2.40;;;1.50;;
10056;SDS011;5068;51.286;7.518;2023-07-31T00:11:19;3.65;;;1.88;;
10056;SDS011;5068;51.286;7.518;2023-07-31T00:12:54;2.65;;;1.40;;
10056;SDS011;5068;51.286;7.518;2023-07-31T00:14:27;2.75;;;1.55;;
10056;SDS011;5068;51.286;7.518;2023-07-31T00:16:00;4.32;;;1.85;;
10056;SDS011;5068;51.286;7.518;2023-07-31T00:17:33;4.68;;;2.00;;
10056;SDS011;5068;51.286;7.518;2023-07-31T00:19:06;3.63;;;1.95;;
10056;SDS011;5068;51.286;7.518;2023-07-31T00:20:39;4.10;;;2.15;;
10056;SDS011;5068;51.286;7.518;2023-07-31T00:22:13;4.72;;;1.70;;
10056;SDS011;5068;51.286;7.518;2023-07-31T00:23:47;2.78;;;1.52;;
10056;SDS011;5068;51.286;7.518;2023-07-31T00:25:19;4.25;;;1.65;;
10056;SDS011;5068;51.286;7.518;2023-07-31T00:26:53;3.13;;;1.70;;
10056;SDS011;5068;51.286;7.518;2023-07-31T00:28:26;2.72;;;1.38;;
10056;SDS011;5068;51.286;7.518;2023-07-31T00:30:00;4.85;;;1.70;;
10056;SDS011;5068;51.286;7.518;2023-07-31T00:31:34;4.38;;;1.80;;
10056;SDS011;5068;51.286;7.518;2023-07-31T00:33:07;3.63;;;1.80;;
10056;SDS011;5068;51.286;7.518;2023-07-31T00:34:41;3.97;;;1.75;;
10056;SDS011;5068;51.286;7.518;2023-07-31T00:36:13;2.65;;;1.30;;
10056;SDS011;5068;51.286;7.518;2023-07-31T00:37:48;3.38;;;1.60;;
10056;SDS011;5068;51.286;7.518;2023-07-31T00:39:21;4.22;;;1.67;;
10056;SDS011;5068;51.286;7.518;2023-07-31T00:40:55;3.60;;;1.63;;
10056;SDS011;5068;51.286;7.518;2023-07-31T00:42:27;3.55;;;1.42;;
10056;SDS011;5068;51.286;7.518;2023-07-31T00:44:01;4.05;;;1.63;;
10056;SDS011;5068;51.286;7.518;2023-07-31T00:45:34;3.80;;;1.70;;
10056;SDS011;5068;51.286;7.518;2023-07-31T00:47:07;2.15;;;1.50;;
10056;SDS011;5068;51.286;7.518;2023-07-31T00:48:41;3.30;;;1.70;;
10056;SDS011;5068;51.286;7.518;2023-07-31T00:50:14;4.68;;;1.85;;
10056;SDS011;5068;51.286;7.518;2023-07-31T00:51:48;3.13;;;1.60;;
10056;SDS011;5068;51.286;7.518;2023-07-31T00:53:23;4.03;;;1.73;;
10056;SDS011;5068;51.286;7.518;2023-07-31T00:54:57;3.35;;;1.40;;
10056;SDS011;5068;51.286;7.518;2023-07-31T00:56:30;4.40;;;1.85;;
10056;SDS011;5068;51.286;7.518;2023-07-31T00:58:05;5.05;;;1.45;;
10056;SDS011;5068;51.286;7.518;2023-07-31T00:59:37;2.97;;;1.70;;
10056;SDS011;5068;51.286;7.518;2023-07-31T01:01:12;3.28;;;1.88;;
10056;SDS011;5068;51.286;7.518;2023-07-31T01:02:45;3.80;;;2.00;;
10056;SDS011;5068;51.286;7.518;2023-07-31T01:04:19;3.67;;;1.92;;
10056;SDS011;5068;51.286;7.518;2023-07-31T01:05:55;4.10;;;1.90;;
10056;SDS011;5068;51.286;7.518;2023-07-31T01:07:42;3.10;;;1.92;;
10056;SDS011;5068;51.286;7.518;2023-07-31T01:09:28;3.67;;;1.77;;
10056;SDS011;5068;51.286;7.518;2023-07-31T01:11:10;3.92;;;1.60;;
10056;SDS011;5068;51.286;7.518;2023-07-31T01:12:50;5.05;;;2.05;;
10056;SDS011;5068;51.286;7.518;2023-07-31T01:14:25;3.72;;;1.77;;
10056;SDS011;5068;51.286;7.518;2023-07-31T01:15:59;4.55;;;2.35;;
10056;SDS011;5068;51.286;7.518;2023-07-31T01:17:31;3.63;;;2.28;;
10056;SDS011;5068;51.286;7.518;2023-07-31T01:19:05;4.72;;;2.20;;
10056;SDS011;5068;51.286;7.518;2023-07-31T01:20:41;5.05;;;2.20;;
10056;SDS011;5068;51.286;7.518;2023-07-31T01:22:30;3.33;;;2.10;;
10056;SDS011;5068;51.286;7.518;2023-07-31T01:24:52;5.38;;;2.15;;
10056;SDS011;5068;51.286;7.518;2023-07-31T01:26:39;5.13;;;2.55;;
10056;SDS011;5068;51.286;7.518;2023-07-31T01:28:19;4.07;;;1.77;;
10056;SDS011;5068;51.286;7.518;2023-07-31T01:29:59;4.03;;;1.83;;
10056;SDS011;5068;51.286;7.518;2023-07-31T01:31:42;3.67;;;1.80;;
10056;SDS011;5068;51.286;7.518;2023-07-31T01:33:21;2.95;;;1.88;;
10056;SDS011;5068;51.286;7.518;2023-07-31T01:34:54;5.63;;;2.28;;
10056;SDS011;5068;51.286;7.518;2023-07-31T01:36:31;4.72;;;1.70;;
10056;SDS011;5068;51.286;7.518;2023-07-31T01:38:04;4.63;;;2.13;;
10056;SDS011;5068;51.286;7.518;2023-07-31T01:39:38;4.13;;;1.80;;
10056;SDS011;5068;51.286;7.518;2023-07-31T01:41:10;4.75;;;2.00;;
10056;SDS011;5068;51.286;7.518;2023-07-31T01:42:45;3.65;;;1.77;;
10056;SDS011;5068;51.286;7.518;2023-07-31T01:44:19;4.40;;;2.20;;
10056;SDS011;5068;51.286;7.518;2023-07-31T01:45:52;6.28;;;2.40;;
10056;SDS011;5068;51.286;7.518;2023-07-31T01:47:25;3.97;;;1.63;;
10056;SDS011;5068;51.286;7.518;2023-07-31T01:48:59;5.78;;;1.83;;
10056;SDS011;5068;51.286;7.518;2023-07-31T01:50:31;4.68;;;1.70;;
10056;SDS011;5068;51.286;7.518;2023-07-31T01:52:05;3.03;;;1.65;;
10056;SDS011;5068;51.286;7.518;2023-07-31T01:53:38;5.15;;;2.13;;
10056;SDS011;5068;51.286;7.518;2023-07-31T01:55:12;5.15;;;1.85;;
10056;SDS011;5068;51.286;7.518;2023-07-31T01:56:45;5.05;;;2.00;;
10056;SDS011;5068;51.286;7.518;2023-07-31T01:58:19;3.30;;;1.50;;
10056;SDS011;5068;51.286;7.518;2023-07-31T01:59:52;5.50;;;1.70;;
10056;SDS011;5068;51.286;7.518;2023-07-31T02:01:26;5.63;;;2.20;;
10056;SDS011;5068;51.286;7.518;2023-07-31T02:02:59;3.67;;;1.70;;
10056;SDS011;5068;51.286;7.518;2023-07-31T02:04:32;3.20;;;1.90;;
10056;SDS011;5068;51.286;7.518;2023-07-31T02:06:07;5.07;;;1.60;;
10056;SDS011;5068;51.286;7.518;2023-07-31T02:07:40;5.30;;;1.90;;
10056;SDS011;5068;51.286;7.518;2023-07-31T02:09:13;4.10;;;1.95;;
10056;SDS011;5068;51.286;7.518;2023-07-31T02:10:46;4.05;;;1.88;;
10056;SDS011;5068;51.286;7.518;2023-07-31T02:12:20;5.40;;;2.17;;
10056;SDS011;5068;51.286;7.518;2023-07-31T02:13:54;3.63;;;1.70;;
10056;SDS011;5068;51.286;7.518;2023-07-31T02:15:27;5.35;;;1.65;;
10056;SDS011;5068;51.286;7.518;2023-07-31T02:17:01;4.38;;;2.08;;
10056;SDS011;5068;51.286;7.518;2023-07-31T02:18:34;4.25;;;1.77;;
10056;SDS011;5068;51.286;7.518;2023-07-31T02:20:07;4.25;;;1.90;;
10056;SDS011;5068;51.286;7.518;2023-07-31T02:21:41;4.03;;;1.83;;
10056;SDS011;5068;51.286;7.518;2023-07-31T02:23:15;5.47;;;1.65;;
10056;SDS011;5068;51.286;7.518;2023-07-31T02:24:48;3.65;;;2.03;;
10056;SDS011;5068;51.286;7.518;2023-07-31T02:26:21;5.28;;;2.10;;
10056;SDS011;5068;51.286;7.518;2023-07-31T02:27:54;4.38;;;1.88;;
10056;SDS011;5068;51.286;7.518;2023-07-31T02:29:28;5.80;;;1.80;;
10056;SDS011;5068;51.286;7.518;2023-07-31T02:31:01;3.67;;;1.80;;
10056;SDS011;5068;51.286;7.518;2023-07-31T02:32:35;5.43;;;1.67;;
10056;SDS011;5068;51.286;7.518;2023-07-31T02:34:07;4.22;;;1.75;;
10056;SDS011;5068;51.286;7.518;2023-07-31T02:35:41;4.80;;;1.88;;
10056;SDS011;5068;51.286;7.518;2023-07-31T02:37:13;5.22;;;1.85;;
10056;SDS011;5068;51.286;7.518;2023-07-31T02:38:47;6.30;;;2.50;;
10056;SDS011;5068;51.286;7.518;2023-07-31T02:40:19;4.47;;;1.83;;
10056;SDS011;5068;51.286;7.518;2023-07-31T02:41:53;3.60;;;1.90;;
10056;SDS011;5068;51.286;7.518;2023-07-31T02:43:25;7.00;;;1.90;;
10056;SDS011;5068;51.286;7.518;2023-07-31T02:45:00;3.55;;;1.83;;
10056;SDS011;5068;51.286;7.518;2023-07-31T02:46:32;4.97;;;2.10;;
10056;SDS011;5068;51.286;7.518;2023-07-31T02:48:06;5.10;;;2.00;;
10056;SDS011;5068;51.286;7.518;2023-07-31T02:49:38;4.22;;;2.03;;
10056;SDS011;5068;51.286;7.518;2023-07-31T02:51:12;3.55;;;2.28;;
10056;SDS011;5068;51.286;7.518;2023-07-31T02:52:44;6.28;;;2.53;;
10056;SDS011;5068;51.286;7.518;2023-07-31T02:54:18;4.97;;;1.65;;
10056;SDS011;5068;51.286;7.518;2023-07-31T02:55:53;4.97;;;2.20;;
10056;SDS011;5068;51.286;7.518;2023-07-31T02:57:26;3.63;;;1.95;;
10056;SDS011;5068;51.286;7.518;2023-07-31T02:58:59;4.60;;;1.92;;
10056;SDS011;5068;51.286;7.518;2023-07-31T03:00:33;4.40;;;1.80;;
10056;SDS011;5068;51.286;7.518;2023-07-31T03:02:06;6.53;;;2.40;;
10056;SDS011;5068;51.286;7.518;2023-07-31T03:03:40;4.38;;;1.55;;
10056;SDS011;5068;51.286;7.518;2023-07-31T03:05:14;4.82;;;1.77;;
10056;SDS011;5068;51.286;7.518;2023-07-31T03:06:47;4.88;;;2.13;;
10056;SDS011;5068;51.286;7.518;2023-07-31T03:08:19;5.25;;;2.30;;
10056;SDS011;5068;51.286;7.518;2023-07-31T03:09:53;4.63;;;2.13;;
10056;SDS011;5068;51.286;7.518;2023-07-31T03:11:26;3.30;;;1.77;;
10056;SDS011;5068;51.286;7.518;2023-07-31T03:13:00;3.78;;;2.22;;
10056;SDS011;5068;51.286;7.518;2023-07-31T03:14:33;5.90;;;2.05;;
10056;SDS011;5068;51.286;7.518;2023-07-31T03:16:07;4.30;;;1.83;;
10056;SDS011;5068;51.286;7.518;2023-07-31T03:17:40;5.55;;;2.30;;
10056;SDS011;5068;51.286;7.518;2023-07-31T03:19:14;4.20;;;1.95;;
10056;SDS011;5068;51.286;7.518;2023-07-31T03:20:46;4.05;;;2.33;;
10056;SDS011;5068;51.286;7.518;2023-07-31T03:22:20;5.47;;;2.05;;
10056;SDS011;5068;51.286;7.518;2023-07-31T03:23:53;5.60;;;1.98;;
10056;SDS011;5068;51.286;7.518;2023-07-31T03:25:26;3.72;;;1.70;;
10056;SDS011;5068;51.286;7.518;2023-07-31T03:26:59;6.45;;;2.40;;
10056;SDS011;5068;51.286;7.518;2023-07-31T03:28:32;3.78;;;1.95;;
10056;SDS011;5068;51.286;7.518;2023-07-31T03:30:05;5.55;;;1.85;;
10056;SDS011;5068;51.286;7.518;2023-07-31T03:31:42;5.15;;;2.10;;
10056;SDS011;5068;51.286;7.518;2023-07-31T03:33:27;3.50;;;1.52;;
10056;SDS011;5068;51.286;7.518;2023-07-31T03:35:00;5.32;;;2.17;;
10056;SDS011;5068;51.286;7.518;2023-07-31T03:36:34;5.45;;;1.80;;
10056;SDS011;5068;51.286;7.518;2023-07-31T03:38:08;7.10;;;2.25;;
10056;SDS011;5068;51.286;7.518;2023-07-31T03:39:43;4.68;;;1.90;;
10056;SDS011;5068;51.286;7.518;2023-07-31T03:41:16;3.60;;;1.85;;
10056;SDS011;5068;51.286;7.518;2023-07-31T03:42:49;4.55;;;1.90;;
10056;SDS011;5068;51.286;7.518;2023-07-31T03:44:22;4.90;;;2.40;;
10056;SDS011;5068;51.286;7.518;2023-07-31T03:45:55;4.18;;;2.00;;
10056;SDS011;5068;51.286;7.518;2023-07-31T03:47:30;4.57;;;2.00;;
10056;SDS011;5068;51.286;7.518;2023-07-31T03:49:04;5.15;;;2.17;;
10056;SDS011;5068;51.286;7.518;2023-07-31T03:50:37;4.43;;;1.80;;
10056;SDS011;5068;51.286;7.518;2023-07-31T03:52:10;6.18;;;2.75;;
10056;SDS011;5068;51.286;7.518;2023-07-31T03:53:43;6.93;;;2.13;;
10056;SDS011;5068;51.286;7.518;2023-07-31T03:55:17;4.65;;;2.00;;
10056;SDS011;5068;51.286;7.518;2023-07-31T03:56:49;4.85;;;2.10;;
10056;SDS011;5068;51.286;7.518;2023-07-31T03:58:23;5.32;;;2.35;;
10056;SDS011;5068;51.286;7.518;2023-07-31T03:59:55;5.53;;;2.10;;
10056;SDS011;5068;51.286;7.518;2023-07-31T04:01:29;6.00;;;2.22;;
10056;SDS011;5068;51.286;7.518;2023-07-31T04:03:03;3.97;;;2.20;;
10056;SDS011;5068;51.286;7.518;2023-07-31T04:04:37;4.80;;;2.20;;
10056;SDS011;5068;51.286;7.518;2023-07-31T04:06:10;4.90;;;2.33;;
10056;SDS011;5068;51.286;7.518;2023-07-31T04:07:42;5.22;;;2.50;;
10056;SDS011;5068;51.286;7.518;2023-07-31T04:09:16;4.10;;;2.00;;
10056;SDS011;5068;51.286;7.518;2023-07-31T04:10:48;5.45;;;2.00;;
10056;SDS011;5068;51.286;7.518;2023-07-31T04:12:22;4.68;;;2.20;;
10056;SDS011;5068;51.286;7.518;2023-07-31T04:13:54;6.15;;;1.92;;
10056;SDS011;5068;51.286;7.518;2023-07-31T04:15:27;4.28;;;2.20;;
10056;SDS011;5068;51.286;7.518;2023-07-31T04:17:00;5.47;;;2.35;;
10056;SDS011;5068;51.286;7.518;2023-07-31T04:18:35;4.35;;;2.17;;
10056;SDS011;5068;51.286;7.518;2023-07-31T04:20:07;4.00;;;1.80;;
10056;SDS011;5068;51.286;7.518;2023-07-31T04:21:42;5.13;;;1.70;;
10056;SDS011;5068;51.286;7.518;2023-07-31T04:23:15;7.47;;;1.98;;
10056;SDS011;5068;51.286;7.518;2023-07-31T04:24:48;4.82;;;2.00;;
10056;SDS011;5068;51.286;7.518;2023-07-31T04:26:22;5.25;;;2.00;;
10056;SDS011;5068;51.286;7.518;2023-07-31T04:27:55;6.20;;;2.20;;
10056;SDS011;5068;51.286;7.518;2023-07-31T04:29:28;5.32;;;2.15;;
10056;SDS011;5068;51.286;7.518;2023-07-31T04:31:01;4.32;;;2.13;;
10056;SDS011;5068;51.286;7.518;2023-07-31T04:32:34;4.10;;;1.58;;
10056;SDS011;5068;51.286;7.518;2023-07-31T04:34:09;3.92;;;1.60;;
10056;SDS011;5068;51.286;7.518;2023-07-31T04:35:48;4.43;;;2.10;;
10056;SDS011;5068;51.286;7.518;2023-07-31T04:37:24;6.15;;;2.28;;
10056;SDS011;5068;51.286;7.518;2023-07-31T04:38:57;5.28;;;2.30;;
10056;SDS011;5068;51.286;7.518;2023-07-31T04:40:30;7.15;;;1.90;;
10056;SDS011;5068;51.286;7.518;2023-07-31T04:42:04;5.80;;;1.90;;
10056;SDS011;5068;51.286;7.518;2023-07-31T04:43:37;4.18;;;2.10;;
10056;SDS011;5068;51.286;7.518;2023-07-31T04:45:11;5.05;;;1.85;;
10056;SDS011;5068;51.286;7.518;2023-07-31T04:46:44;3.78;;;1.85;;
10056;SDS011;5068;51.286;7.518;2023-07-31T04:48:17;9.05;;;2.15;;
10056;SDS011;5068;51.286;7.518;2023-07-31T04:49:51;3.97;;;2.00;;
10056;SDS011;5068;51.286;7.518;2023-07-31T04:51:24;6.90;;;2.50;;
10056;SDS011;5068;51.286;7.518;2023-07-31T04:52:57;4.90;;;2.30;;
10056;SDS011;5068;51.286;7.518;2023-07-31T04:54:30;4.13;;;2.28;;
10056;SDS011;5068;51.286;7.518;2023-07-31T04:56:03;3.92;;;2.40;;
10056;SDS011;5068;51.286;7.518;2023-07-31T04:57:36;7.55;;;2.47;;
10056;SDS011;5068;51.286;7.518;2023-07-31T04:59:09;4.43;;;2.00;;
10056;SDS011;5068;51.286;7.518;2023-07-31T05:00:42;3.75;;;2.20;;
10056;SDS011;5068;51.286;7.518;2023-07-31T05:02:15;6.68;;;2.45;;
10056;SDS011;5068;51.286;7.518;2023-07-31T05:03:48;4.90;;;2.22;;
10056;SDS011;5068;51.286;7.518;2023-07-31T05:05:22;4.63;;;2.05;;
10056;SDS011;5068;51.286;7.518;2023-07-31T05:06:56;6.35;;;2.17;;
10056;SDS011;5068;51.286;7.518;2023-07-31T05:08:28;5.97;;;2.42;;
10056;SDS011;5068;51.286;7.518;2023-07-31T05:10:02;4.07;;;2.42;;
10056;SDS011;5068;51.286;7.518;2023-07-31T05:11:36;4.40;;;2.20;;
10056;SDS011;5068;51.286;7.518;2023-07-31T05:13:08;3.42;;;2.03;;
10056;SDS011;5068;51.286;7.518;2023-07-31T05:14:41;3.83;;;2.13;;
10056;SDS011;5068;51.286;7.518;2023-07-31T05:16:14;3.65;;;2.10;;
10056;SDS011;5068;51.286;7.518;2023-07-31T05:17:48;4.53;;;2.30;;
10056;SDS011;5068;51.286;7.518;2023-07-31T05:19:20;4.95;;;2.35;;
10056;SDS011;5068;51.286;7.518;2023-07-31T05:20:55;5.38;;;2.45;;
10056;SDS011;5068;51.286;7.518;2023-07-31T05:22:27;4.47;;;2.03;;
10056;SDS011;5068;51.286;7.518;2023-07-31T05:24:01;7.47;;;2.20;;
10056;SDS011;5068;51.286;7.518;2023-07-31T05:25:33;5.95;;;2.65;;
10056;SDS011;5068;51.286;7.518;2023-07-31T05:27:07;4.13;;;2.60;;
10056;SDS011;5068;51.286;7.518;2023-07-31T05:28:41;5.57;;;2.20;;
10056;SDS011;5068;51.286;7.518;2023-07-31T05:30:14;3.97;;;2.42;;
10056;SDS011;5068;51.286;7.518;2023-07-31T05:31:47;4.47;;;2.33;;
10056;SDS011;5068;51.286;7.518;2023-07-31T05:33:20;4.85;;;2.88;;
10056;SDS011;5068;51.286;7.518;2023-07-31T05:34:53;6.40;;;2.40;;
10056;SDS011;5068;51.286;7.518;2023-07-31T05:36:28;3.78;;;2.30;;
10056;SDS011;5068;51.286;7.518;2023-07-31T05:38:02;4.00;;;2.33;;
10056;SDS011;5068;51.286;7.518;2023-07-31T05:39:35;4.28;;;2.47;;
10056;SDS011;5068;51.286;7.518;2023-07-31T05:41:08;5.22;;;2.90;;
10056;SDS011;5068;51.286;7.518;2023-07-31T05:42:41;6.05;;;2.60;;
10056;SDS011;5068;51.286;7.518;2023-07-31T05:44:14;4.00;;;2.45;;
10056;SDS011;5068;51.286;7.518;2023-07-31T05:45:47;6.55;;;2.72;;
10056;SDS011;5068;51.286;7.518;2023-07-31T05:47:20;4.25;;;2.45;;
10056;SDS011;5068;51.286;7.518;2023-07-31T05:48:54;5.35;;;2.72;;
10056;SDS011;5068;51.286;7.518;2023-07-31T05:50:26;4.97;;;2.70;;
10056;SDS011;5068;51.286;7.518;2023-07-31T05:52:01;5.03;;;3.17;;
10056;SDS011;5068;51.286;7.518;2023-07-31T05:53:34;4.72;;;2.88;;
10056;SDS011;5068;51.286;7.518;2023-07-31T05:55:11;6.35;;;2.60;;
10056;SDS011;5068;51.286;7.518;2023-07-31T05:56:45;6.50;;;2.58;;
10056;SDS011;5068;51.286;7.518;2023-07-31T05:58:17;2.80;;;1.88;;
10056;SDS011;5068;51.286;7.518;2023-07-31T05:59:51;4.32;;;2.38;;
10056;SDS011;5068;51.286;7.518;2023-07-31T06:01:24;4.18;;;2.40;;
10056;SDS011;5068;51.286;7.518;2023-07-31T06:02:58;4.28;;;2.40;;
10056;SDS011;5068;51.286;7.518;2023-07-31T06:04:31;3.88;;;2.47;;
10056;SDS011;5068;51.286;7.518;2023-07-31T06:06:04;4.22;;;2.25;;
10056;SDS011;5068;51.286;7.518;2023-07-31T06:07:38;5.18;;;2.53;;
10056;SDS011;5068;51.286;7.518;2023-07-31T06:09:12;6.40;;;2.38;;
10056;SDS011;5068;51.286;7.518;2023-07-31T06:10:45;7.32;;;3.47;;
10056;SDS011;5068;51.286;7.518;2023-07-31T06:12:19;5.50;;;2.35;;
10056;SDS011;5068;51.286;7.518;2023-07-31T06:13:51;6.13;;;2.60;;
10056;SDS011;5068;51.286;7.518;2023-07-31T06:15:25;5.97;;;2.35;;
10056;SDS011;5068;51.286;7.518;2023-07-31T06:16:59;4.15;;;2.15;;
10056;SDS011;5068;51.286;7.518;2023-07-31T06:18:31;4.35;;;2.00;;
10056;SDS011;5068;51.286;7.518;2023-07-31T06:20:06;6.00;;;2.45;;
10056;SDS011;5068;51.286;7.518;2023-07-31T06:21:39;4.90;;;2.60;;
10056;SDS011;5068;51.286;7.518;2023-07-31T06:23:15;3.83;;;2.25;;
10056;SDS011;5068;51.286;7.518;2023-07-31T06:24:50;5.25;;;2.47;;
10056;SDS011;5068;51.286;7.518;2023-07-31T06:26:23;5.28;;;2.22;;
10056;SDS011;5068;51.286;7.518;2023-07-31T06:27:55;3.83;;;2.40;;
10056;SDS011;5068;51.286;7.518;2023-07-31T06:29:31;4.07;;;2.08;;
10056;SDS011;5068;51.286;7.518;2023-07-31T06:31:03;4.43;;;2.00;;
10056;SDS011;5068;51.286;7.518;2023-07-31T06:32:37;4.85;;;2.67;;
10056;SDS011;5068;51.286;7.518;2023-07-31T06:34:09;6.80;;;2.28;;
10056;SDS011;5068;51.286;7.518;2023-07-31T06:35:43;4.22;;;2.70;;
10056;SDS011;5068;51.286;7.518;2023-07-31T06:37:15;7.50;;;2.72;;
10056;SDS011;5068;51.286;7.518;2023-07-31T06:38:51;5.10;;;2.40;;
10056;SDS011;5068;51.286;7.518;2023-07-31T06:40:23;3.42;;;1.92;;
10056;SDS011;5068;51.286;7.518;2023-07-31T06:41:57;3.80;;;2.30;;
10056;SDS011;5068;51.286;7.518;2023-07-31T06:43:29;4.10;;;2.50;;
10056;SDS011;5068;51.286;7.518;2023-07-31T06:45:03;5.57;;;2.38;;
10056;SDS011;5068;51.286;7.518;2023-07-31T06:46:37;4.60;;;2.22;;
10056;SDS011;5068;51.286;7.518;2023-07-31T06:48:10;5.13;;;2.50;;
10056;SDS011;5068;51.286;7.518;2023-07-31T06:49:44;8.13;;;2.45;;
10056;SDS011;5068;51.286;7.518;2023-07-31T06:51:17;5.53;;;2.63;;
10056;SDS011;5068;51.286;7.518;2023-07-31T06:52:50;3.13;;;2.10;;
10056;SDS011;5068;51.286;7.518;2023-07-31T06:54:25;5.38;;;1.90;;
10056;SDS011;5068;51.286;7.518;2023-07-31T06:55:57;3.83;;;2.20;;
10056;SDS011;5068;51.286;7.518;2023-07-31T06:57:31;3.60;;;2.65;;
10056;SDS011;5068;51.286;7.518;2023-07-31T06:59:03;3.42;;;2.25;;
10056;SDS011;5068;51.286;7.518;2023-07-31T07:00:36;4.97;;;2.03;;
10056;SDS011;5068;51.286;7.518;2023-07-31T07:02:09;3.80;;;2.30;;
10056;SDS011;5068;51.286;7.518;2023-07-31T07:03:42;3.90;;;2.63;;
10056;SDS011;5068;51.286;7.518;2023-07-31T07:05:15;3.75;;;2.15;;
10056;SDS011;5068;51.286;7.518;2023-07-31T07:06:50;3.65;;;2.08;;
10056;SDS011;5068;51.286;7.518;2023-07-31T07:08:23;3.78;;;2.17;;
10056;SDS011;5068;51.286;7.518;2023-07-31T07:09:59;5.35;;;2.50;;
10056;SDS011;5068;51.286;7.518;2023-07-31T07:11:32;4.03;;;1.77;;
10056;SDS011;5068;51.286;7.518;2023-07-31T07:13:05;3.53;;;2.10;;
10056;SDS011;5068;51.286;7.518;2023-07-31T07:14:38;6.25;;;2.10;;
10056;SDS011;5068;51.286;7.518;2023-07-31T07:16:11;4.40;;;2.08;;
10056;SDS011;5068;51.286;7.518;2023-07-31T07:17:44;3.88;;;2.08;;
10056;SDS011;5068;51.286;7.518;2023-07-31T07:19:17;3.63;;;2.20;;
10056;SDS011;5068;51.286;7.518;2023-07-31T07:20:50;3.60;;;2.00;;
10056;SDS011;5068;51.286;7.518;2023-07-31T07:22:25;3.13;;;1.92;;
10056;SDS011;5068;51.286;7.518;2023-07-31T07:23:59;3.88;;;2.10;;
10056;SDS011;5068;51.286;7.518;2023-07-31T07:25:35;4.13;;;2.30;;
10056;SDS011;5068;51.286;7.518;2023-07-31T07:27:11;5.25;;;2.33;;
10056;SDS011;5068;51.286;7.518;2023-07-31T07:28:44;4.32;;;2.17;;
10056;SDS011;5068;51.286;7.518;2023-07-31T07:30:18;4.13;;;2.53;;
10056;SDS011;5068;51.286;7.518;2023-07-31T07:31:51;3.05;;;1.85;;
10056;SDS011;5068;51.286;7.518;2023-07-31T07:33:24;4.82;;;2.28;;
10056;SDS011;5068;51.286;7.518;2023-07-31T07:34:58;4.70;;;2.05;;
10056;SDS011;5068;51.286;7.518;2023-07-31T07:36:30;5.03;;;2.50;;
10056;SDS011;5068;51.286;7.518;2023-07-31T07:38:04;5.55;;;2.50;;
10056;SDS011;5068;51.286;7.518;2023-07-31T07:39:37;4.55;;;2.15;;
10056;SDS011;5068;51.286;7.518;2023-07-31T07:41:12;3.58;;;2.22;;
10056;SDS011;5068;51.286;7.518;2023-07-31T07:42:45;3.05;;;2.13;;
10056;SDS011;5068;51.286;7.518;2023-07-31T07:44:18;3.88;;;2.05;;
10056;SDS011;5068;51.286;7.518;2023-07-31T07:45:51;4.18;;;2.22;;
10056;SDS011;5068;51.286;7.518;2023-07-31T07:47:24;4.30;;;2.50;;
10056;SDS011;5068;51.286;7.518;2023-07-31T07:49:00;4.20;;;2.30;;
10056;SDS011;5068;51.286;7.518;2023-07-31T07:50:32;5.38;;;2.85;;
10056;SDS011;5068;51.286;7.518;2023-07-31T07:52:06;3.50;;;2.40;;
10056;SDS011;5068;51.286;7.518;2023-07-31T07:53:38;5.80;;;2.33;;
10056;SDS011;5068;51.286;7.518;2023-07-31T07:55:12;3.60;;;2.20;;
10056;SDS011;5068;51.286;7.518;2023-07-31T07:56:46;5.75;;;1.92;;
10056;SDS011;5068;51.286;7.518;2023-07-31T07:58:19;4.60;;;2.78;;
10056;SDS011;5068;51.286;7.518;2023-07-31T07:59:52;4.07;;;2.20;;
10056;SDS011;5068;51.286;7.518;2023-07-31T08:01:26;4.95;;;2.30;;
10056;SDS011;5068;51.286;7.518;2023-07-31T08:02:58;4.70;;;2.30;;
10056;SDS011;5068;51.286;7.518;2023-07-31T08:04:32;4.72;;;2.40;;
10056;SDS011;5068;51.286;7.518;2023-07-31T08:06:04;3.13;;;2.45;;
10056;SDS011;5068;51.286;7.518;2023-07-31T08:07:38;5.63;;;2.20;;
10056;SDS011;5068;51.286;7.518;2023-07-31T08:09:10;4.68;;;2.22;;
10056;SDS011;5068;51.286;7.518;2023-07-31T08:10:43;4.47;;;2.10;;
10056;SDS011;5068;51.286;7.518;2023-07-31T08:12:17;7.45;;;2.00;;
10056;SDS011;5068;51.286;7.518;2023-07-31T08:13:51;5.32;;;2.80;;
10056;SDS011;5068;51.286;7.518;2023-07-31T08:15:23;5.03;;;2.00;;
10056;SDS011;5068;51.286;7.518;2023-07-31T08:16:57;5.32;;;2.30;;
10056;SDS011;5068;51.286;7.518;2023-07-31T08:18:30;4.43;;;2.22;;
10056;SDS011;5068;51.286;7.518;2023-07-31T08:20:05;4.97;;;2.30;;
10056;SDS011;5068;51.286;7.518;2023-07-31T08:21:39;3.15;;;2.03;;
10056;SDS011;5068;51.286;7.518;2023-07-31T08:23:13;3.67;;;2.55;;
10056;SDS011;5068;51.286;7.518;2023-07-31T08:24:45;3.22;;;1.73;;
10056;SDS011;5068;51.286;7.518;2023-07-31T08:26:20;4.45;;;2.30;;
10056;SDS011;5068;51.286;7.518;2023-07-31T08:27:54;3.83;;;2.42;;
10056;SDS011;5068;51.286;7.518;2023-07-31T08:29:28;3.72;;;2.10;;
10056;SDS011;5068;51.286;7.518;2023-07-31T08:31:01;3.47;;;1.70;;
10056;SDS011;5068;51.286;7.518;2023-07-31T08:32:36;2.92;;;1.55;;
10056;SDS011;5068;51.286;7.518;2023-07-31T08:34:09;3.03;;;1.70;;
10056;SDS011;5068;51.286;7.518;2023-07-31T08:35:42;2.88;;;1.77;;
10056;SDS011;5068;51.286;7.518;2023-07-31T08:37:15;4.30;;;2.08;;
10056;SDS011;5068;51.286;7.518;2023-07-31T08:38:47;3.03;;;1.77;;
10056;SDS011;5068;51.286;7.518;2023-07-31T08:40:23;2.70;;;1.90;;
10056;SDS011;5068;51.286;7.518;2023-07-31T08:41:59;4.03;;;2.03;;
10056;SDS011;5068;51.286;7.518;2023-07-31T08:43:36;2.85;;;1.70;;
10056;SDS011;5068;51.286;7.518;2023-07-31T08:45:13;2.78;;;1.52;;
10056;SDS011;5068;51.286;7.518;2023-07-31T08:46:47;3.80;;;2.13;;
10056;SDS011;5068;51.286;7.518;2023-07-31T08:48:22;3.60;;;1.88;;
10056;SDS011;5068;51.286;7.518;2023-07-31T08:49:56;2.53;;;1.80;;
10056;SDS011;5068;51.286;7.518;2023-07-31T08:51:34;3.63;;;2.05;;
10056;SDS011;5068;51.286;7.518;2023-07-31T08:54:41;2.20;;;1.50;;
10056;SDS011;5068;51.286;7.518;2023-07-31T08:56:14;2.17;;;1.58;;
10056;SDS011;5068;51.286;7.518;2023-07-31T08:57:50;3.60;;;1.95;;
10056;SDS011;5068;51.286;7.518;2023-07-31T09:01:01;2.58;;;1.60;;
10056;SDS011;5068;51.286;7.518;2023-07-31T09:02:38;3.35;;;1.67;;
10056;SDS011;5068;51.286;7.518;2023-07-31T09:04:17;2.30;;;1.70;;
10056;SDS011;5068;51.286;7.518;2023-07-31T09:05:57;2.30;;;1.40;;
10056;SDS011;5068;51.286;7.518;2023-07-31T09:07:31;1.85;;;1.30;;
10056;SDS011;5068;51.286;7.518;2023-07-31T09:09:06;2.78;;;1.40;;
10056;SDS011;5068;51.286;7.518;2023-07-31T09:10:40;2.33;;;1.52;;
10056;SDS011;5068;51.286;7.518;2023-07-31T09:12:16;1.98;;;1.40;;
10056;SDS011;5068;51.286;7.518;2023-07-31T09:13:49;2.20;;;1.27;;
10056;SDS011;5068;51.286;7.518;2023-07-31T09:15:25;3.17;;;1.40;;
10056;SDS011;5068;51.286;7.518;2023-07-31T09:17:09;1.85;;;1.20;;
10056;SDS011;5068;51.286;7.518;2023-07-31T09:18:52;3.30;;;1.60;;
10056;SDS011;5068;51.286;7.518;2023-07-31T09:20:28;3.00;;;1.40;;
10056;SDS011;5068;51.286;7.518;2023-07-31T09:22:01;2.38;;;1.45;;
10056;SDS011;5068;51.286;7.518;2023-07-31T09:23:41;2.95;;;1.30;;
10056;SDS011;5068;51.286;7.518;2023-07-31T09:26:49;2.33;;;1.23;;
10056;SDS011;5068;51.286;7.518;2023-07-31T09:28:30;1.75;;;1.10;;
10056;SDS011;5068;51.286;7.518;2023-07-31T09:30:06;2.88;;;1.30;;
10056;SDS011;5068;51.286;7.518;2023-07-31T09:31:42;2.05;;;1.33;;
10056;SDS011;5068;51.286;7.518;2023-07-31T09:33:17;2.17;;;1.50;;
10056;SDS011;5068;51.286;7.518;2023-07-31T09:34:51;2.40;;;1.30;;
10056;SDS011;5068;51.286;7.518;2023-07-31T09:36:25;2.53;;;1.63;;
10056;SDS011;5068;51.286;7.518;2023-07-31T09:38:03;2.85;;;1.33;;
10056;SDS011;5068;51.286;7.518;2023-07-31T09:39:45;2.58;;;1.50;;